.
WxDataArchive / Data Records for 2010-11-04
2010-11-03 November 2010 2010-11-05

Data Records for Thursday, 04 November 2010

Time	Temp	Chill	HIndex	Humid	Dewpt	 Wind 	HiWind	WindDir	Rain 	Barom 
-----	----	-----	------	-----	-----	------	------	-------	-----	----- 
00:00	41.5	41.5	41.5	63	29.9	0	1	248	0.00	29.829 
00:05	41.3	41.3	41.3	63	29.7	0	1	248	0.00	29.829 
00:10	41.3	41.3	41.3	63	29.7	0	0	---	0.00	29.829 
00:15	41.2	41.2	41.2	64	30.0	0	0	---	0.00	29.814 
00:20	41.1	41.1	41.1	64	29.9	0	0	---	0.00	29.814 
00:25	40.8	40.8	40.8	64	29.6	0	0	---	0.00	29.814 
00:30	40.6	40.6	40.6	65	29.8	0	0	---	0.00	29.808 
00:35	40.5	40.5	40.5	65	29.7	0	0	---	0.00	29.808 
00:40	40.3	40.3	40.3	66	29.9	0	0	---	0.00	29.808 
00:45	40.1	40.1	40.1	66	29.7	0	0	---	0.00	29.798 
00:50	39.8	39.8	39.8	67	29.8	0	0	---	0.00	29.798 
00:55	39.5	39.5	39.5	67	29.5	0	0	---	0.00	29.798 
01:00	39.2	39.2	39.2	68	29.5	0	0	---	0.00	29.798 
01:05	39.1	39.1	39.1	69	29.8	0	0	---	0.00	29.798 
01:10	38.8	38.8	38.8	70	29.9	0	0	---	0.00	29.798 
01:15	38.6	38.6	38.6	70	29.7	0	0	---	0.00	29.796 
01:20	38.5	38.5	38.5	71	29.9	0	0	---	0.00	29.796 
01:25	38.3	38.3	38.3	72	30.1	0	0	---	0.00	29.796 
01:30	38.3	38.3	38.3	73	30.4	0	0	---	0.00	29.792 
01:35	38.2	38.2	38.2	73	30.3	0	0	---	0.00	29.792 
01:40	38.0	38.0	38.0	73	30.1	0	0	---	0.00	29.792 
01:45	38.0	38.0	38.0	74	30.5	0	0	---	0.00	29.785 
01:50	38.0	38.0	38.0	74	30.5	0	0	---	0.00	29.785 
01:55	38.0	38.0	38.0	75	30.8	0	0	---	0.00	29.785 
02:00	38.0	38.0	38.0	76	31.1	0	0	---	0.00	29.782 
02:05	38.0	38.0	38.0	75	30.8	0	0	---	0.00	29.782 
02:10	38.0	38.0	38.0	75	30.8	0	0	---	0.00	29.782 
02:15	38.2	38.2	38.2	75	31.0	0	0	---	0.00	29.768 
02:20	38.2	38.2	38.2	75	31.0	0	0	---	0.00	29.768 
02:25	38.2	38.2	38.2	75	31.0	0	0	---	0.00	29.768 
02:30	38.2	38.2	38.2	74	30.7	0	0	---	0.00	29.762 
02:35	38.2	38.2	38.2	75	31.0	0	0	---	0.00	29.762 
02:40	38.2	38.2	38.2	75	31.0	0	0	---	0.00	29.762 
02:45	38.3	38.3	38.3	75	31.1	0	0	---	0.00	29.752 
02:50	38.2	38.2	38.2	75	31.0	0	0	---	0.00	29.752 
02:55	38.2	38.2	38.2	75	31.0	0	0	---	0.00	29.752 
03:00	38.0	38.0	38.0	75	30.8	0	0	---	0.00	29.751 
03:05	38.0	38.0	38.0	76	31.1	0	0	---	0.00	29.751 
03:10	37.9	37.9	37.9	76	31.0	0	0	---	0.00	29.751 
03:15	37.8	37.8	37.8	76	30.9	0	0	---	0.00	29.754 
03:20	37.8	37.8	37.8	77	31.2	0	0	---	0.00	29.754 
03:25	37.6	37.6	37.6	77	31.1	0	0	---	0.00	29.754 
03:30	37.3	37.3	37.3	77	30.8	0	0	---	0.00	29.753 
03:35	37.2	37.2	37.2	78	31.0	0	0	---	0.00	29.753 
03:40	36.9	36.9	36.9	78	30.7	0	0	---	0.00	29.753 
03:45	36.8	36.8	36.8	79	30.9	0	0	---	0.00	29.753 
03:50	36.5	36.5	36.5	79	30.6	0	0	---	0.00	29.753 
03:55	36.3	36.3	36.3	79	30.4	0	0	---	0.00	29.753 
04:00	36.2	36.2	36.2	81	30.9	0	1	248	0.00	29.752 
04:05	35.9	35.9	35.9	81	30.6	0	0	---	0.00	29.752 
04:10	35.6	35.6	35.6	81	30.4	0	0	---	0.00	29.752 
04:15	35.5	35.5	35.5	81	30.3	0	0	---	0.00	29.752 
04:20	35.2	35.2	35.2	81	30.0	0	0	---	0.00	29.752 
04:25	34.9	34.9	34.9	82	30.0	0	0	---	0.00	29.752 
04:30	34.7	34.7	34.7	82	29.8	0	0	---	0.00	29.742 
04:35	34.4	34.4	34.4	83	29.8	0	0	---	0.00	29.742 
04:40	34.1	34.1	34.1	83	29.5	0	0	---	0.00	29.742 
04:45	33.8	33.8	33.8	83	29.2	0	0	---	0.00	29.742 
04:50	33.5	33.5	33.5	84	29.2	0	0	---	0.00	29.742 
04:55	33.4	33.4	33.4	84	29.1	0	0	---	0.00	29.742 
05:00	33.1	33.1	33.1	84	28.8	0	0	---	0.00	29.741 
05:05	32.9	32.9	32.9	84	28.6	0	0	---	0.00	29.741 
05:10	32.8	32.8	32.8	85	28.8	0	0	---	0.00	29.741 
05:15	32.5	32.5	32.5	85	28.5	0	0	---	0.00	29.734 
05:20	32.4	32.4	32.4	85	28.4	0	0	---	0.00	29.734 
05:25	32.2	32.2	32.2	86	28.5	0	0	---	0.00	29.734 
05:30	31.9	31.9	31.9	86	28.2	0	0	---	0.00	29.741 
05:35	31.8	31.8	31.8	86	28.1	0	0	---	0.00	29.741 
05:40	31.6	31.6	31.6	87	28.2	0	0	---	0.00	29.741 
05:45	31.5	31.5	31.5	87	28.1	0	0	---	0.00	29.739 
05:50	31.3	31.3	31.3	87	27.9	0	0	---	0.00	29.739 
05:55	31.2	31.2	31.2	87	27.8	0	0	---	0.00	29.739 
06:00	31.0	31.0	31.0	87	27.6	0	0	---	0.00	29.739 
06:05	30.9	30.9	30.9	87	27.5	0	0	---	0.00	29.739 
06:10	30.9	30.9	30.9	88	27.8	0	0	---	0.00	29.739 
06:15	30.9	30.9	30.9	88	27.8	0	0	---	0.00	29.742 
06:20	30.7	30.7	30.7	88	27.6	0	0	---	0.00	29.742 
06:25	30.6	30.6	30.6	88	27.5	0	0	---	0.00	29.742 
06:30	30.6	30.6	30.6	88	27.5	0	0	---	0.00	29.741 
06:35	30.6	30.6	30.6	88	27.5	0	0	---	0.00	29.741 
06:40	30.4	30.4	30.4	89	27.6	0	0	---	0.00	29.741 
06:45	30.6	30.6	30.6	89	27.8	0	0	---	0.00	29.741 
06:50	30.6	30.6	30.6	89	27.8	0	0	---	0.00	29.741 
06:55	30.6	30.6	30.6	89	27.8	0	0	---	0.00	29.741 
07:00	30.6	30.6	30.6	89	27.8	0	0	---	0.00	29.739 
07:05	30.7	30.7	30.7	90	28.1	0	0	---	0.00	29.739 
07:10	30.7	30.7	30.7	90	28.1	0	0	---	0.00	29.739 
07:15	30.9	30.9	30.9	90	28.3	0	0	---	0.00	29.742 
07:20	31.0	31.0	31.0	90	28.4	0	0	---	0.00	29.742 
07:25	31.2	31.2	31.2	90	28.6	0	0	---	0.00	29.742 
07:30	31.3	31.3	31.3	90	28.7	0	0	---	0.00	29.739 
07:35	31.5	31.5	31.5	90	28.9	0	0	---	0.00	29.739 
07:40	31.6	31.6	31.6	90	29.0	0	0	---	0.00	29.739 
07:45	31.6	31.6	31.6	90	29.0	0	0	---	0.00	29.743 
07:50	31.6	31.6	31.6	90	29.0	0	0	---	0.00	29.743 
07:55	31.6	31.6	31.6	90	29.0	0	0	---	0.00	29.743 
08:00	31.5	31.5	31.5	90	28.9	0	0	---	0.00	29.739 
08:05	31.8	31.8	31.8	90	29.2	0	1	248	0.00	29.739 
08:10	31.9	31.9	31.9	90	29.3	0	1	248	0.00	29.739 
08:15	32.4	32.4	32.4	90	29.8	0	2	248	0.00	29.729 
08:20	32.9	32.9	32.9	91	30.6	1	3	248	0.00	29.729 
08:25	33.5	33.5	33.5	91	31.2	0	1	248	0.00	29.729 
08:30	33.8	33.8	33.8	91	31.5	0	1	248	0.00	29.743 
08:35	34.1	34.1	34.1	91	31.8	0	1	248	0.00	29.743 
08:40	34.1	34.1	34.1	90	31.5	0	1	248	0.00	29.743 
08:45	34.3	34.3	34.3	90	31.7	0	0	---	0.00	29.745 
08:50	34.4	34.4	34.4	90	31.8	0	0	---	0.00	29.745 
08:55	34.4	34.4	34.4	90	31.8	0	0	---	0.00	29.745 
09:00	34.4	34.4	34.4	90	31.8	0	0	---	0.00	29.746 
09:05	34.4	34.4	34.4	90	31.8	0	1	248	0.00	29.746 
09:10	34.4	34.4	34.4	89	31.5	0	0	---	0.00	29.746 
09:15	34.6	34.6	34.6	90	32.0	0	0	---	0.00	29.746 
09:20	35.0	35.0	35.0	90	32.4	0	1	248	0.00	29.746 
09:25	35.5	35.5	35.5	90	32.9	0	0	---	0.00	29.746 
09:30	36.0	36.0	36.0	90	33.4	0	1	292	0.00	29.748 
09:35	36.9	36.9	36.9	90	34.2	0	1	292	0.00	29.748 
09:40	37.9	37.9	37.9	89	35.0	0	1	292	0.00	29.748 
09:45	38.5	38.5	38.5	89	35.5	0	1	292	0.00	29.752 
09:50	39.2	39.2	39.2	88	35.9	0	2	292	0.00	29.752 
09:55	39.8	39.8	39.8	88	36.5	0	1	292	0.00	29.752 
10:00	40.2	40.2	40.2	88	36.9	0	1	0	0.00	29.752 
10:05	40.3	40.3	40.3	87	36.7	0	2	0	0.00	29.752 
10:10	40.5	40.5	40.5	86	36.6	0	1	270	0.00	29.752 
10:15	40.8	40.8	40.8	86	36.9	0	1	270	0.00	29.742 
10:20	41.1	41.1	41.1	86	37.2	0	2	270	0.00	29.742 
10:25	41.5	41.5	41.5	85	37.3	0	0	---	0.00	29.742 
10:30	41.9	41.9	41.9	84	37.4	0	1	270	0.00	29.738 
10:35	42.2	42.2	42.2	83	37.4	0	1	270	0.00	29.738 
10:40	42.6	42.6	42.6	83	37.8	0	1	270	0.00	29.738 
10:45	43.1	43.1	43.1	82	38.0	0	1	270	0.00	29.736 
10:50	43.3	43.3	43.3	81	37.9	0	1	270	0.00	29.736 
10:55	43.8	43.8	43.8	81	38.4	0	2	270	0.00	29.736 
11:00	44.2	44.2	44.2	80	38.4	0	1	270	0.00	29.735 
11:05	44.5	44.5	44.5	78	38.1	0	1	270	0.00	29.735 
11:10	44.9	44.9	44.9	78	38.5	0	1	270	0.00	29.735 
11:15	45.4	45.4	45.4	77	38.6	0	2	270	0.00	29.737 
11:20	45.8	45.8	45.8	77	39.0	0	2	270	0.00	29.737 
11:25	46.0	46.0	46.0	75	38.5	0	2	270	0.00	29.737 
11:30	46.0	46.0	46.0	75	38.5	0	3	270	0.00	29.735 
11:35	46.2	46.2	46.2	75	38.7	0	1	270	0.00	29.735 
11:40	46.7	46.7	46.7	75	39.2	0	0	---	0.00	29.735 
11:45	46.7	46.7	46.7	74	38.9	0	2	270	0.00	29.734 
11:50	46.5	46.5	46.5	73	38.3	0	2	270	0.00	29.734 
11:55	46.2	46.2	46.2	73	38.0	0	3	270	0.00	29.734 
12:00	46.1	46.1	46.1	73	37.9	0	2	315	0.00	29.734 
12:05	46.2	46.2	46.2	74	38.4	0	1	22	0.00	29.734 
12:10	46.7	46.7	46.7	73	38.5	0	2	22	0.00	29.734 
12:15	47.0	47.0	47.0	72	38.4	0	1	22	0.00	29.736 
12:20	47.1	47.1	47.1	72	38.5	0	2	22	0.00	29.736 
12:25	47.1	47.1	47.1	72	38.5	0	1	22	0.00	29.736 
12:30	47.3	47.3	47.3	71	38.4	0	1	22	0.00	29.733 
12:35	47.4	47.4	47.4	71	38.5	0	1	22	0.00	29.733 
12:40	47.7	47.7	47.7	69	38.0	0	2	292	0.00	29.733 
12:45	47.9	47.9	47.9	69	38.2	0	2	292	0.00	29.730 
12:50	47.9	47.9	47.9	69	38.2	1	3	292	0.00	29.730 
12:55	47.7	47.7	47.7	69	38.0	1	3	292	0.00	29.730 
13:00	47.4	47.4	47.4	70	38.1	0	2	315	0.00	29.727 
13:05	47.3	47.3	47.3	71	38.4	0	2	22	0.00	29.727 
13:10	47.4	47.4	47.4	72	38.8	0	3	22	0.00	29.727 
13:15	47.3	47.3	47.3	72	38.7	0	2	45	0.00	29.723 
13:20	47.0	47.0	47.0	74	39.1	0	2	45	0.00	29.723 
13:25	46.4	46.4	46.4	77	39.6	0	1	45	0.01	29.723 
13:30	46.0	46.0	46.0	81	40.5	0	1	45	0.00	29.718 
13:35	45.8	45.8	45.8	82	40.6	0	2	45	0.00	29.718 
13:40	46.0	46.0	46.0	81	40.5	1	4	338	0.00	29.718 
13:45	45.8	45.8	45.8	80	40.0	1	3	338	0.00	29.714 
13:50	45.7	45.7	45.7	80	39.9	1	3	338	0.00	29.714 
13:55	45.4	45.4	45.4	79	39.3	1	5	0	0.00	29.714 
14:00	45.2	45.2	45.2	80	39.4	2	6	292	0.00	29.715 
14:05	44.9	44.9	44.9	79	38.8	1	3	315	0.00	29.715 
14:10	44.6	44.6	44.6	81	39.1	1	3	315	0.00	29.715 
14:15	44.3	44.3	44.3	83	39.5	0	1	315	0.00	29.711 
14:20	44.2	44.2	44.2	85	40.0	0	1	315	0.01	29.711 
14:25	44.2	44.2	44.2	86	40.3	0	2	315	0.00	29.711 
14:30	44.2	44.2	44.2	86	40.3	0	1	315	0.00	29.706 
14:35	44.2	44.2	44.2	87	40.6	0	2	315	0.00	29.706 
14:40	44.5	44.5	44.5	87	40.9	0	1	315	0.00	29.706 
14:45	44.8	44.8	44.8	87	41.2	0	1	315	0.00	29.705 
14:50	45.2	45.2	45.2	86	41.3	0	3	0	0.00	29.705 
14:55	45.2	45.2	45.2	85	41.0	0	1	0	0.00	29.705 
15:00	45.5	45.5	45.5	85	41.3	0	1	0	0.00	29.702 
15:05	45.8	45.8	45.8	84	41.2	0	1	0	0.00	29.702 
15:10	46.0	46.0	46.0	83	41.1	0	2	0	0.00	29.702 
15:15	46.0	46.0	46.0	81	40.5	0	2	0	0.00	29.702 
15:20	45.8	45.8	45.8	77	39.0	0	2	315	0.00	29.702 
15:25	46.0	46.0	46.0	75	38.5	0	2	315	0.00	29.702 
15:30	46.4	46.4	46.4	74	38.6	1	5	315	0.00	29.699 
15:35	47.3	47.3	47.3	73	39.1	1	5	338	0.00	29.699 
15:40	47.6	47.6	47.6	69	37.9	2	4	292	0.00	29.699 
15:45	47.6	47.6	47.6	69	37.9	1	3	292	0.00	29.698 
15:50	47.6	47.6	47.6	69	37.9	1	3	292	0.00	29.698 
15:55	47.6	47.6	47.6	69	37.9	0	2	292	0.00	29.698 
16:00	47.7	47.7	47.7	67	37.3	0	3	292	0.00	29.700 
16:05	48.0	48.0	48.0	67	37.6	0	1	292	0.00	29.700 
16:10	48.5	48.5	48.5	67	38.0	0	1	292	0.00	29.700 
16:15	48.3	48.3	48.3	65	37.1	0	2	292	0.00	29.704 
16:20	48.0	48.0	48.0	65	36.8	0	2	292	0.00	29.704 
16:25	47.7	47.7	47.7	65	36.5	0	1	292	0.00	29.704 
16:30	47.7	47.7	47.7	66	36.9	0	1	292	0.00	29.706 
16:35	47.7	47.7	47.7	65	36.5	0	1	292	0.00	29.706 
16:40	47.7	47.7	47.7	66	36.9	0	1	292	0.00	29.706 
16:45	47.7	47.7	47.7	65	36.5	0	1	292	0.00	29.708 
16:50	47.9	47.9	47.9	65	36.7	0	1	292	0.00	29.708 
16:55	48.0	48.0	48.0	65	36.8	0	1	292	0.00	29.708 
17:00	48.2	48.2	48.2	65	37.0	0	2	292	0.00	29.709 
17:05	48.2	48.2	48.2	65	37.0	0	1	292	0.00	29.709 
17:10	48.5	48.5	48.5	65	37.3	0	0	---	0.00	29.709 
17:15	48.6	48.6	48.6	64	37.0	0	1	292	0.00	29.708 
17:20	48.6	48.6	48.6	64	37.0	0	1	292	0.00	29.708 
17:25	48.6	48.6	48.6	63	36.6	0	1	292	0.00	29.708 
17:30	48.6	48.6	48.6	63	36.6	0	2	292	0.00	29.709 
17:35	48.6	48.6	48.6	62	36.2	0	1	292	0.00	29.709 
17:40	48.5	48.5	48.5	62	36.1	0	1	292	0.00	29.709 
17:45	48.3	48.3	48.3	65	37.1	1	3	315	0.00	29.713 
17:50	47.9	47.9	47.9	66	37.1	2	4	315	0.00	29.713 
17:55	47.4	47.4	47.4	68	37.4	1	4	315	0.00	29.713 
18:00	47.0	47.0	47.0	69	37.4	1	3	315	0.00	29.719 
18:05	46.8	46.8	46.8	69	37.2	1	3	315	0.00	29.719 
18:10	46.5	46.5	46.5	69	36.9	1	3	315	0.00	29.719 
18:15	46.2	46.2	46.2	70	37.0	2	5	315	0.00	29.726 
18:20	46.0	46.0	46.0	70	36.8	2	4	270	0.00	29.726 
18:25	45.7	45.7	45.7	71	36.8	1	4	0	0.00	29.726 
18:30	45.4	45.4	45.4	73	37.3	1	2	270	0.00	29.731 
18:35	45.1	45.1	45.1	74	37.3	1	4	315	0.00	29.731 
18:40	44.9	44.9	44.9	76	37.8	1	3	292	0.00	29.731 
18:45	44.6	44.6	44.6	78	38.2	1	4	315	0.01	29.741 
18:50	44.2	44.2	44.2	80	38.4	0	2	315	0.00	29.741 
18:55	43.9	43.9	43.9	82	38.8	0	1	315	0.00	29.741 
19:00	43.6	43.6	43.6	83	38.8	0	1	315	0.00	29.743 
19:05	43.5	43.5	43.5	83	38.7	0	1	315	0.00	29.743 
19:10	43.3	43.3	43.3	83	38.5	0	1	315	0.00	29.743 
19:15	43.1	43.1	43.1	83	38.3	0	1	315	0.00	29.744 
19:20	42.8	42.8	42.8	83	38.0	0	1	315	0.00	29.744 
19:25	42.6	42.6	42.6	84	38.1	0	0	---	0.00	29.744 
19:30	42.3	42.3	42.3	84	37.8	0	0	---	0.00	29.746 
19:35	42.2	42.2	42.2	84	37.7	0	0	---	0.00	29.746 
19:40	42.2	42.2	42.2	84	37.7	0	1	315	0.00	29.746 
19:45	42.3	42.3	42.3	84	37.8	0	1	315	0.00	29.753 
19:50	42.3	42.3	42.3	84	37.8	0	1	315	0.00	29.753 
19:55	42.3	42.3	42.3	84	37.8	0	1	315	0.00	29.753 
20:00	42.3	42.3	42.3	84	37.8	0	1	315	0.00	29.760 
20:05	42.5	42.5	42.5	84	38.0	0	2	315	0.00	29.760 
20:10	42.3	42.3	42.3	83	37.5	0	1	315	0.00	29.760 
20:15	42.3	42.3	42.3	83	37.5	0	0	---	0.00	29.762 
20:20	42.2	42.2	42.2	83	37.4	0	0	---	0.00	29.762 
20:25	42.1	42.1	42.1	83	37.3	0	0	---	0.00	29.762 
20:30	41.9	41.9	41.9	84	37.4	0	0	---	0.00	29.764 
20:35	41.8	41.8	41.8	84	37.3	0	0	---	0.00	29.764 
20:40	41.6	41.6	41.6	84	37.1	0	0	---	0.00	29.764 
20:45	41.8	41.8	41.8	84	37.3	0	0	---	0.00	29.772 
20:50	41.8	41.8	41.8	85	37.6	0	0	---	0.00	29.772 
20:55	41.9	41.9	41.9	84	37.4	0	2	315	0.00	29.772 
21:00	42.2	42.2	42.2	81	36.8	0	3	45	0.00	29.773 
21:05	42.5	42.5	42.5	78	36.1	0	3	112	0.00	29.773 
21:10	42.5	42.5	42.5	77	35.8	0	2	22	0.00	29.773 
21:15	42.6	42.6	42.6	76	35.6	0	1	22	0.00	29.767 
21:20	42.6	42.6	42.6	76	35.6	0	1	22	0.00	29.767 
21:25	42.6	42.6	42.6	76	35.6	0	2	68	0.00	29.767 
21:30	42.6	42.6	42.6	75	35.2	0	1	68	0.00	29.769 
21:35	42.6	42.6	42.6	75	35.2	0	1	68	0.00	29.769 
21:40	42.6	42.6	42.6	75	35.2	0	0	---	0.00	29.769 
21:45	42.5	42.5	42.5	75	35.1	0	0	---	0.00	29.770 
21:50	42.3	42.3	42.3	76	35.3	0	0	---	0.00	29.770 
21:55	42.2	42.2	42.2	76	35.2	0	0	---	0.00	29.770 
22:00	42.1	42.1	42.1	75	34.8	0	1	68	0.00	29.773 
22:05	41.9	41.9	41.9	75	34.6	0	1	68	0.00	29.773 
22:10	41.8	41.8	41.8	75	34.5	0	1	68	0.00	29.773 
22:15	41.6	41.6	41.6	75	34.3	0	1	68	0.00	29.769 
22:20	41.3	41.3	41.3	76	34.3	0	0	---	0.00	29.769 
22:25	41.2	41.2	41.2	76	34.2	0	0	---	0.00	29.769 
22:30	40.9	40.9	40.9	76	33.9	0	0	---	0.00	29.778 
22:35	40.8	40.8	40.8	77	34.2	0	0	---	0.00	29.778 
22:40	40.6	40.6	40.6	77	34.0	0	0	---	0.00	29.778 
22:45	40.5	40.5	40.5	77	33.9	0	0	---	0.00	29.783 
22:50	40.3	40.3	40.3	78	34.0	0	0	---	0.00	29.783 
22:55	40.5	40.5	40.5	79	34.5	0	1	68	0.00	29.783 
23:00	40.5	40.5	40.5	79	34.5	0	0	---	0.00	29.784 
23:05	40.5	40.5	40.5	80	34.8	0	0	---	0.00	29.784 
23:10	40.6	40.6	40.6	80	34.9	0	0	---	0.00	29.784 
23:15	40.8	40.8	40.8	80	35.1	0	1	68	0.00	29.785 
23:20	40.9	40.9	40.9	80	35.2	0	2	68	0.00	29.785 
23:25	41.1	41.1	41.1	80	35.4	0	1	68	0.00	29.785 
23:30	41.2	41.2	41.2	80	35.5	0	1	68	0.00	29.789 
23:35	41.2	41.2	41.2	80	35.5	1	3	22	0.00	29.789 
23:40	41.3	41.3	41.3	79	35.3	1	5	22	0.00	29.789 
23:45	41.2	41.2	41.2	79	35.2	0	1	90	0.00	29.792 
23:50	41.1	41.1	41.1	79	35.1	0	1	90	0.00	29.792 
23:55	41.1	41.1	41.1	79	35.1	0	3	90	0.00	29.792 

CoCoRaHS
IN-AL-39
A2 Web Hosting
Creative Commons License
GoDaddy
search engine by freefind advanced

loaded 2018-11-17 15:11:39 • last modified 2010-11-18 10:43:29
Privacy PolicyDisclaimer
• wx.awcolley.com is powered by PmWiki v.2002016 •
• all content (unless otherwise noted) © 2018 A W Colley